createdAt,value
2023-12-10T00:00:36.563Z,4.18
2023-12-10T00:03:23.878Z,4.08
2023-12-10T00:06:00.339Z,4.00
2023-12-10T00:08:34.837Z,3.94
2023-12-10T00:11:01.829Z,3.90
2023-12-10T00:13:28.789Z,3.98
2023-12-10T00:15:55.250Z,4.01
2023-12-10T00:18:22.306Z,4.11
2023-12-10T00:20:49.127Z,4.02
2023-12-10T00:23:16.173Z,4.02
2023-12-10T00:25:44.178Z,4.10
2023-12-10T00:28:11.265Z,4.06
2023-12-10T00:30:38.288Z,3.97
2023-12-10T00:33:05.150Z,3.99
2023-12-10T00:35:31.941Z,4.02
2023-12-10T00:37:58.988Z,3.95
2023-12-10T00:40:25.399Z,3.92
2023-12-10T00:42:52.413Z,3.88
2023-12-10T00:45:18.935Z,3.92
2023-12-10T00:47:45.978Z,3.88
2023-12-10T00:50:12.806Z,3.87
2023-12-10T00:52:40.153Z,3.78
2023-12-10T00:55:06.784Z,3.80
2023-12-10T00:57:34.761Z,3.83
2023-12-10T01:00:01.233Z,3.69
2023-12-10T01:02:29.329Z,3.91
2023-12-10T01:04:56.495Z,3.70
2023-12-10T01:07:23.608Z,3.78
2023-12-10T01:09:50.165Z,4.01
2023-12-10T01:12:17.257Z,3.90
2023-12-10T01:14:44.922Z,3.93
2023-12-10T01:17:13.010Z,4.01
2023-12-10T01:19:40.118Z,3.84
2023-12-10T01:22:06.819Z,4.06
2023-12-10T01:24:33.271Z,3.96
2023-12-10T01:27:00.684Z,4.00
2023-12-10T01:29:27.513Z,4.01
2023-12-10T01:31:54.288Z,4.16
2023-12-10T01:34:20.876Z,4.19
2023-12-10T01:36:48.591Z,3.94
2023-12-10T01:39:15.986Z,3.88
2023-12-10T01:41:43.677Z,3.85
2023-12-10T01:44:12.906Z,3.85
2023-12-10T01:46:39.529Z,3.93
2023-12-10T01:49:08.414Z,3.93
2023-12-10T01:51:36.912Z,3.93
2023-12-10T01:54:04.271Z,4.00
2023-12-10T01:56:31.318Z,4.11
2023-12-10T01:58:58.919Z,4.09
2023-12-10T02:01:26.268Z,4.19
2023-12-10T02:03:54.005Z,4.12
2023-12-10T02:06:22.691Z,4.10
2023-12-10T02:08:49.507Z,4.22
2023-12-10T02:11:16.547Z,3.95
2023-12-10T02:13:43.544Z,4.14
2023-12-10T02:16:09.912Z,3.97
2023-12-10T02:18:37.130Z,4.11
2023-12-10T02:21:03.908Z,4.32
2023-12-10T02:23:44.813Z,4.19
2023-12-10T02:26:11.627Z,4.14
2023-12-10T02:28:38.715Z,4.12
2023-12-10T02:31:05.698Z,4.02
2023-12-10T02:33:32.482Z,4.22
2023-12-10T02:35:59.136Z,4.27
2023-12-10T02:38:25.914Z,4.37
2023-12-10T02:40:52.332Z,4.22
2023-12-10T02:43:20.389Z,4.28
2023-12-10T02:45:47.585Z,4.19
2023-12-10T02:48:14.540Z,4.10
2023-12-10T02:50:41.041Z,4.20
2023-12-10T02:53:07.878Z,4.28
2023-12-10T02:55:34.250Z,4.24
2023-12-10T02:58:03.578Z,4.23
2023-12-10T03:00:31.565Z,4.14
2023-12-10T03:02:58.688Z,4.22
2023-12-10T03:05:25.732Z,4.24
2023-12-10T03:07:53.009Z,4.20
2023-12-10T03:10:20.406Z,4.16
2023-12-10T03:12:47.256Z,4.13
2023-12-10T03:15:14.072Z,4.31
2023-12-10T03:17:41.114Z,4.26
2023-12-10T03:20:09.900Z,4.12
2023-12-10T03:22:36.582Z,4.18
2023-12-10T03:25:03.176Z,4.28
2023-12-10T03:27:30.281Z,4.27
2023-12-10T03:29:56.940Z,4.29
2023-12-10T03:32:23.828Z,4.35
2023-12-10T03:34:50.366Z,4.37
2023-12-10T03:37:17.178Z,4.29
2023-12-10T03:39:43.730Z,4.34
2023-12-10T03:42:10.540Z,4.28
2023-12-10T03:44:36.931Z,4.38
2023-12-10T03:47:04.210Z,4.25
2023-12-10T03:49:30.898Z,4.34
2023-12-10T03:51:58.370Z,4.48
2023-12-10T03:54:24.955Z,4.17
2023-12-10T03:56:51.701Z,4.20
2023-12-10T03:59:18.169Z,4.33
2023-12-10T04:01:45.122Z,4.25
2023-12-10T04:04:12.183Z,4.11
2023-12-10T04:06:42.865Z,4.25
2023-12-10T04:09:09.945Z,4.18
2023-12-10T04:11:37.738Z,4.27
2023-12-10T04:14:08.600Z,4.33
2023-12-10T04:16:35.543Z,4.32
2023-12-10T04:19:02.121Z,4.49
2023-12-10T04:21:29.016Z,4.31
2023-12-10T04:23:55.510Z,4.28
2023-12-10T04:26:22.490Z,4.37
2023-12-10T04:28:49.962Z,4.24
2023-12-10T04:31:16.846Z,4.31
2023-12-10T04:33:45.109Z,4.38
2023-12-10T04:36:12.444Z,4.48
2023-12-10T04:38:39.397Z,4.32
2023-12-10T04:41:06.369Z,4.24
2023-12-10T04:43:32.824Z,4.26
2023-12-10T04:45:59.867Z,4.45
2023-12-10T04:48:26.536Z,4.31
2023-12-10T04:50:53.446Z,4.42
2023-12-10T04:53:19.899Z,4.31
2023-12-10T04:55:46.842Z,4.58
2023-12-10T04:58:13.478Z,4.51
2023-12-10T05:00:41.393Z,4.57
2023-12-10T05:03:07.846Z,4.60
2023-12-10T05:05:34.944Z,4.63
2023-12-10T05:08:01.494Z,4.58
2023-12-10T05:10:31.100Z,4.47
2023-12-10T05:12:59.732Z,4.50
2023-12-10T05:15:26.717Z,4.55
2023-12-10T05:17:53.282Z,4.43
2023-12-10T05:20:20.281Z,4.55
2023-12-10T05:22:46.934Z,4.59
2023-12-10T05:25:13.823Z,4.53
2023-12-10T05:27:40.330Z,4.72
2023-12-10T05:30:07.475Z,4.65
2023-12-10T05:32:33.950Z,4.61
2023-12-10T05:35:00.646Z,4.66
2023-12-10T05:37:27.906Z,4.62
2023-12-10T05:39:55.131Z,4.49
2023-12-10T05:42:21.676Z,4.68
2023-12-10T05:44:49.048Z,4.62
2023-12-10T05:47:15.456Z,4.79
2023-12-10T05:49:42.344Z,4.61
2023-12-10T05:52:08.858Z,4.77
2023-12-10T05:54:35.710Z,4.48
2023-12-10T05:57:02.191Z,4.59
2023-12-10T05:59:29.426Z,4.55
2023-12-10T06:01:56.611Z,4.58
2023-12-10T06:04:23.652Z,4.59
2023-12-10T06:06:50.511Z,4.69
2023-12-10T06:09:17.573Z,4.79
2023-12-10T06:11:44.225Z,4.75
2023-12-10T06:14:11.306Z,4.70
2023-12-10T06:16:38.180Z,4.56
2023-12-10T06:19:05.085Z,4.36
2023-12-10T06:21:32.904Z,4.31
2023-12-10T06:24:01.208Z,4.42
2023-12-10T06:26:27.929Z,4.36
2023-12-10T06:28:55.227Z,4.49
2023-12-10T06:31:21.917Z,4.42
2023-12-10T06:33:49.089Z,4.37
2023-12-10T06:36:15.953Z,4.44
2023-12-10T06:38:43.026Z,4.47
2023-12-10T06:41:09.555Z,4.44
2023-12-10T06:43:36.524Z,4.41
2023-12-10T06:46:04.293Z,4.53
2023-12-10T06:48:34.266Z,4.79
2023-12-10T06:51:02.938Z,4.86
2023-12-10T06:53:32.461Z,4.99
2023-12-10T06:55:59.101Z,4.68
2023-12-10T06:58:26.487Z,4.68
2023-12-10T07:00:53.194Z,4.54
2023-12-10T07:03:20.740Z,4.69
2023-12-10T07:05:47.530Z,4.63
2023-12-10T07:08:14.674Z,4.64
2023-12-10T07:10:41.096Z,4.63
2023-12-10T07:13:07.904Z,4.48
2023-12-10T07:15:34.778Z,4.57
2023-12-10T07:18:02.315Z,4.42
2023-12-10T07:20:28.776Z,4.47
2023-12-10T07:22:55.750Z,4.62
2023-12-10T07:25:22.177Z,4.84
2023-12-10T07:27:49.069Z,4.88
2023-12-10T07:30:15.885Z,4.78
2023-12-10T07:32:42.735Z,4.77
2023-12-10T07:35:09.228Z,5.00
2023-12-10T07:37:36.243Z,4.75
2023-12-10T07:40:03.448Z,4.87
2023-12-10T07:42:30.573Z,5.03
2023-12-10T07:44:57.097Z,5.02
2023-12-10T07:47:23.908Z,5.01
2023-12-10T07:49:51.098Z,5.09
2023-12-10T07:52:18.920Z,5.12
2023-12-10T07:54:45.654Z,5.38
2023-12-10T07:57:12.739Z,5.12
2023-12-10T07:59:39.451Z,5.03
2023-12-10T08:02:06.821Z,5.14
2023-12-10T08:04:33.450Z,5.07
2023-12-10T08:07:00.447Z,5.10
2023-12-10T08:09:29.489Z,5.03
2023-12-10T08:11:56.370Z,4.95
2023-12-10T08:14:26.406Z,4.95
2023-12-10T08:16:53.347Z,5.03
2023-12-10T08:19:20.252Z,5.14
2023-12-10T08:21:47.425Z,5.05
2023-12-10T08:24:14.096Z,5.30
2023-12-10T08:26:41.224Z,5.38
2023-12-10T08:29:08.216Z,5.37
2023-12-10T08:31:36.227Z,5.51
2023-12-10T08:34:03.329Z,5.38
2023-12-10T08:36:30.454Z,5.40
2023-12-10T08:38:57.213Z,5.26
2023-12-10T08:41:23.986Z,5.28
2023-12-10T08:43:50.608Z,5.31
2023-12-10T08:46:17.732Z,5.38
2023-12-10T08:48:45.986Z,5.44
2023-12-10T08:51:13.156Z,5.40
2023-12-10T08:53:40.429Z,5.43
2023-12-10T08:56:07.840Z,5.50
2023-12-10T08:58:34.512Z,5.63
2023-12-10T09:01:02.106Z,5.56
2023-12-10T09:03:28.677Z,5.60
2023-12-10T09:05:56.265Z,5.62
2023-12-10T09:08:23.369Z,5.52
2023-12-10T09:10:50.604Z,5.68
2023-12-10T09:13:17.039Z,5.70
2023-12-10T09:15:44.407Z,5.70
2023-12-10T09:18:11.285Z,5.87
2023-12-10T09:20:39.145Z,5.94
2023-12-10T09:23:05.883Z,5.90
2023-12-10T09:25:33.320Z,5.84
2023-12-10T09:28:00.793Z,5.84
2023-12-10T09:30:27.883Z,5.75
2023-12-10T09:32:54.789Z,5.86
2023-12-10T09:35:23.843Z,6.04
2023-12-10T09:37:50.350Z,5.82
2023-12-10T09:40:20.629Z,5.90
2023-12-10T09:42:48.036Z,5.78
2023-12-10T09:45:15.078Z,5.68
2023-12-10T09:47:45.301Z,5.91
2023-12-10T09:50:14.456Z,5.87
2023-12-10T09:52:42.232Z,5.94
2023-12-10T09:55:10.248Z,5.64
2023-12-10T09:57:36.753Z,5.83
2023-12-10T10:00:05.737Z,5.79
2023-12-10T10:02:33.803Z,5.68
2023-12-10T10:05:06.288Z,5.90
2023-12-10T10:07:32.921Z,5.77
2023-12-10T10:10:00.012Z,5.76
2023-12-10T10:12:30.932Z,5.79
2023-12-10T10:14:59.926Z,5.93
2023-12-10T10:17:31.966Z,5.74
2023-12-10T10:20:00.181Z,5.71
2023-12-10T10:22:27.936Z,5.83
2023-12-10T10:24:55.455Z,5.85
2023-12-10T10:27:22.241Z,5.86
2023-12-10T10:29:53.571Z,5.95
2023-12-10T10:32:24.252Z,5.95
2023-12-10T10:34:51.702Z,5.86
2023-12-10T10:37:19.560Z,6.10
2023-12-10T10:39:51.566Z,6.21
2023-12-10T10:42:18.838Z,6.05
2023-12-10T10:44:46.930Z,6.07
2023-12-10T10:47:13.923Z,5.96
2023-12-10T10:49:45.057Z,5.92
2023-12-10T10:52:33.986Z,5.65
2023-12-10T10:55:02.643Z,5.68
2023-12-10T10:57:29.991Z,5.69
2023-12-10T10:59:57.574Z,5.92
2023-12-10T11:02:24.439Z,5.82
2023-12-10T11:04:52.371Z,5.89
2023-12-10T11:07:21.607Z,5.70
2023-12-10T11:10:00.316Z,5.68
2023-12-10T11:12:51.856Z,5.62
2023-12-10T11:15:18.722Z,5.63
2023-12-10T11:17:51.738Z,5.63
2023-12-10T11:20:42.495Z,5.57
2023-12-10T11:23:11.446Z,5.53
2023-12-10T11:25:38.925Z,5.70
2023-12-10T11:28:15.168Z,5.72
2023-12-10T11:30:43.155Z,5.93
2023-12-10T11:33:12.487Z,5.75
2023-12-10T11:35:40.972Z,5.78
2023-12-10T11:38:09.516Z,5.88
2023-12-10T11:40:36.858Z,5.68
2023-12-10T11:43:06.972Z,5.74
2023-12-10T11:45:35.190Z,5.84
2023-12-10T11:48:03.847Z,5.90
2023-12-10T11:50:36.974Z,5.81
2023-12-10T11:53:04.555Z,5.88
2023-12-10T11:55:32.217Z,6.04
2023-12-10T11:58:00.443Z,5.95
2023-12-10T12:00:27.898Z,6.22
2023-12-10T12:02:54.535Z,6.32
2023-12-10T12:05:21.790Z,6.56
2023-12-10T12:07:49.996Z,6.55
2023-12-10T12:10:18.419Z,6.51
2023-12-10T12:12:47.211Z,6.33
2023-12-10T12:15:16.602Z,6.32
2023-12-10T12:17:44.428Z,6.19
2023-12-10T12:20:19.453Z,6.34
2023-12-10T12:22:49.009Z,6.17
2023-12-10T12:25:17.519Z,6.36
2023-12-10T12:27:44.952Z,6.41
2023-12-10T12:30:12.977Z,6.59
2023-12-10T12:32:39.869Z,6.67
2023-12-10T12:35:08.350Z,6.60
2023-12-10T12:37:36.296Z,6.51
2023-12-10T12:40:05.342Z,6.51
2023-12-10T12:42:33.274Z,6.48
2023-12-10T12:45:00.964Z,6.65
2023-12-10T12:47:28.091Z,6.47
2023-12-10T12:49:55.636Z,6.45
2023-12-10T12:52:22.939Z,6.56
2023-12-10T12:54:50.602Z,6.42
2023-12-10T12:57:18.384Z,6.52
2023-12-10T12:59:45.832Z,6.29
2023-12-10T13:02:13.043Z,6.31
2023-12-10T13:04:41.257Z,6.26
2023-12-10T13:07:08.447Z,6.26
2023-12-10T13:09:35.699Z,6.11
2023-12-10T13:12:03.671Z,6.34
2023-12-10T13:14:30.946Z,6.27
2023-12-10T13:16:57.775Z,6.28
2023-12-10T13:19:24.995Z,6.20
2023-12-10T13:21:52.401Z,6.16
2023-12-10T13:24:19.655Z,6.22
2023-12-10T13:26:46.250Z,6.13
2023-12-10T13:29:13.959Z,6.15
2023-12-10T13:31:42.501Z,6.30
2023-12-10T13:34:09.965Z,6.30
2023-12-10T13:36:37.087Z,6.23
2023-12-10T13:39:04.277Z,6.38
2023-12-10T13:41:30.897Z,6.21
2023-12-10T13:43:57.961Z,6.25
2023-12-10T13:46:26.270Z,6.26
2023-12-10T13:48:53.718Z,6.48
2023-12-10T13:51:20.678Z,6.34
2023-12-10T13:53:48.433Z,5.99
2023-12-10T13:56:15.311Z,5.88
2023-12-10T13:58:42.656Z,5.74
2023-12-10T14:01:09.525Z,5.70
2023-12-10T14:03:36.618Z,5.88
2023-12-10T14:06:05.426Z,5.78
2023-12-10T14:08:32.683Z,5.78
2023-12-10T14:10:59.500Z,5.90
2023-12-10T14:13:26.871Z,5.93
2023-12-10T14:15:55.352Z,5.94
2023-12-10T14:18:22.922Z,6.03
2023-12-10T14:20:49.861Z,6.21
2023-12-10T14:23:17.061Z,6.02
2023-12-10T14:25:45.183Z,6.03
2023-12-10T14:28:12.651Z,6.14
2023-12-10T14:30:41.157Z,6.21
2023-12-10T14:33:09.208Z,6.30
2023-12-10T14:35:36.137Z,6.20
2023-12-10T14:38:04.112Z,6.14
2023-12-10T14:40:30.709Z,6.32
2023-12-10T14:42:58.001Z,6.27
2023-12-10T14:45:24.981Z,6.19
2023-12-10T14:47:52.484Z,6.27
2023-12-10T14:50:19.392Z,6.42
2023-12-10T14:52:47.233Z,6.37
2023-12-10T14:55:18.283Z,6.40
2023-12-10T14:57:46.903Z,6.48
2023-12-10T15:00:15.280Z,6.44
2023-12-10T15:02:42.446Z,6.37
2023-12-10T15:05:09.474Z,6.43
2023-12-10T15:07:42.565Z,6.38
2023-12-10T15:10:11.065Z,6.38
2023-12-10T15:12:39.061Z,6.45
2023-12-10T15:15:06.726Z,6.46
2023-12-10T15:17:34.152Z,6.42
2023-12-10T15:20:01.164Z,6.37
2023-12-10T15:22:28.256Z,6.45
2023-12-10T15:24:55.115Z,6.53
2023-12-10T15:27:23.294Z,6.53
2023-12-10T15:29:50.157Z,6.61
2023-12-10T15:32:17.439Z,6.54
2023-12-10T15:34:44.586Z,6.69
2023-12-10T15:37:11.995Z,6.56
2023-12-10T15:39:39.220Z,6.64
2023-12-10T15:42:06.444Z,6.73
2023-12-10T15:44:33.215Z,6.74
2023-12-10T15:47:02.329Z,6.67
2023-12-10T15:49:32.219Z,6.67
2023-12-10T15:52:00.800Z,6.64
2023-12-10T15:54:31.817Z,6.65
2023-12-10T15:57:01.797Z,6.60
2023-12-10T15:59:28.662Z,6.43
2023-12-10T16:01:56.676Z,6.42
2023-12-10T16:04:27.093Z,6.34
2023-12-10T16:06:54.763Z,6.38
2023-12-10T16:09:21.356Z,6.39
2023-12-10T16:11:48.448Z,6.47
2023-12-10T16:14:15.104Z,6.44
2023-12-10T16:16:42.196Z,6.61
2023-12-10T16:19:08.841Z,6.55
2023-12-10T16:21:35.877Z,6.52
2023-12-10T16:24:03.346Z,6.61
2023-12-10T16:26:38.105Z,6.77
2023-12-10T16:29:05.048Z,6.69
2023-12-10T16:31:33.461Z,6.75
2023-12-10T16:34:02.031Z,6.70
2023-12-10T16:36:29.353Z,6.80
2023-12-10T16:38:56.239Z,6.76
2023-12-10T16:41:23.682Z,6.79
2023-12-10T16:43:50.764Z,6.78
2023-12-10T16:46:18.014Z,6.69
2023-12-10T16:48:44.977Z,6.66
2023-12-10T16:51:12.444Z,6.67
2023-12-10T16:53:39.098Z,6.72
2023-12-10T16:56:06.686Z,6.69
2023-12-10T16:58:33.592Z,6.77
2023-12-10T17:01:00.813Z,6.77
2023-12-10T17:03:27.877Z,6.74
2023-12-10T17:05:55.846Z,6.80
2023-12-10T17:08:23.558Z,6.76
2023-12-10T17:10:50.718Z,6.79
2023-12-10T17:13:17.609Z,6.76
2023-12-10T17:15:45.257Z,6.74
2023-12-10T17:18:11.930Z,6.78
2023-12-10T17:20:39.238Z,6.84
2023-12-10T17:23:06.435Z,6.95
2023-12-10T17:25:33.954Z,6.87
2023-12-10T17:28:01.028Z,6.88
2023-12-10T17:30:28.482Z,6.92
2023-12-10T17:32:55.329Z,6.93
2023-12-10T17:35:22.587Z,6.91
2023-12-10T17:37:49.600Z,6.84
2023-12-10T17:40:16.850Z,6.76
2023-12-10T17:42:43.781Z,6.70
2023-12-10T17:45:11.042Z,6.75
2023-12-10T17:47:37.793Z,6.77
2023-12-10T17:50:08.005Z,6.82
2023-12-10T17:52:35.232Z,6.78
2023-12-10T17:55:02.716Z,6.79
2023-12-10T17:57:30.003Z,6.66
2023-12-10T17:59:57.539Z,6.69
2023-12-10T18:02:24.322Z,6.78
2023-12-10T18:04:52.133Z,6.87
2023-12-10T18:07:20.088Z,6.78
2023-12-10T18:09:47.541Z,6.79
2023-12-10T18:12:14.386Z,6.80
2023-12-10T18:14:42.166Z,6.84
2023-12-10T18:17:09.388Z,6.83
2023-12-10T18:19:37.206Z,6.84
2023-12-10T18:22:04.728Z,6.83
2023-12-10T18:24:32.019Z,6.83
2023-12-10T18:26:58.637Z,6.80
2023-12-10T18:29:27.246Z,6.87
2023-12-10T18:31:53.965Z,6.96
2023-12-10T18:34:21.606Z,6.97
2023-12-10T18:36:48.661Z,6.95
2023-12-10T18:39:15.876Z,7.13
2023-12-10T18:41:42.751Z,7.07
2023-12-10T18:44:12.197Z,7.10
2023-12-10T18:46:38.812Z,7.15
2023-12-10T18:49:06.851Z,7.13
2023-12-10T18:51:33.657Z,7.15
2023-12-10T18:54:00.898Z,7.03
2023-12-10T18:56:27.568Z,7.07
2023-12-10T18:58:54.670Z,7.24
2023-12-10T19:01:24.335Z,7.15
2023-12-10T19:03:51.956Z,7.14
2023-12-10T19:06:18.754Z,7.29
2023-12-10T19:08:46.010Z,7.18
2023-12-10T19:11:14.044Z,7.21
2023-12-10T19:13:41.961Z,7.19
2023-12-10T19:16:08.619Z,7.22
2023-12-10T19:18:41.926Z,7.19
2023-12-10T19:21:08.658Z,7.13
2023-12-10T19:23:37.042Z,7.16
2023-12-10T19:26:04.010Z,7.09
2023-12-10T19:28:31.111Z,7.09
2023-12-10T19:30:57.994Z,7.00
2023-12-10T19:33:25.743Z,7.10
2023-12-10T19:35:52.398Z,7.02
2023-12-10T19:38:19.383Z,7.06
2023-12-10T19:40:46.296Z,6.99
2023-12-10T19:43:13.089Z,6.99
2023-12-10T19:45:39.722Z,6.97
2023-12-10T19:48:06.829Z,7.04
2023-12-10T19:50:33.398Z,6.96
2023-12-10T19:53:00.347Z,6.89
2023-12-10T19:55:27.099Z,6.95
2023-12-10T19:57:54.160Z,6.95
2023-12-10T20:00:21.648Z,6.94
2023-12-10T20:02:49.635Z,7.03
2023-12-10T20:05:16.913Z,7.04
2023-12-10T20:07:44.293Z,7.08
2023-12-10T20:10:11.484Z,7.16
2023-12-10T20:12:38.726Z,7.08
2023-12-10T20:15:06.266Z,7.03
2023-12-10T20:17:33.679Z,7.03
2023-12-10T20:20:01.730Z,7.07
2023-12-10T20:22:29.112Z,7.05
2023-12-10T20:25:02.398Z,7.09
2023-12-10T20:27:31.273Z,7.12
2023-12-10T20:29:59.156Z,7.08
2023-12-10T20:32:28.553Z,7.07
2023-12-10T20:34:55.687Z,7.12
2023-12-10T20:37:22.644Z,7.17
2023-12-10T20:39:49.248Z,7.19
2023-12-10T20:42:16.641Z,7.16
2023-12-10T20:44:43.294Z,7.20
2023-12-10T20:47:10.752Z,7.24
2023-12-10T20:49:37.553Z,7.30
2023-12-10T20:52:06.334Z,7.29
2023-12-10T20:54:33.194Z,7.29
2023-12-10T20:57:00.704Z,7.35
2023-12-10T20:59:27.410Z,7.32
2023-12-10T21:01:54.426Z,7.33
2023-12-10T21:04:21.507Z,7.30
2023-12-10T21:06:52.739Z,7.35
2023-12-10T21:09:19.973Z,7.34
2023-12-10T21:11:47.237Z,7.27
2023-12-10T21:14:13.938Z,7.24
2023-12-10T21:16:41.002Z,7.25
2023-12-10T21:19:07.808Z,7.27
2023-12-10T21:21:35.022Z,7.25
2023-12-10T21:24:01.681Z,7.17
2023-12-10T21:26:29.274Z,7.26
2023-12-10T21:28:56.121Z,7.31
2023-12-10T21:31:25.561Z,7.33
2023-12-10T21:33:53.091Z,7.34
2023-12-10T21:36:20.088Z,7.38
2023-12-10T21:38:46.709Z,7.45
2023-12-10T21:41:13.890Z,7.41
2023-12-10T21:43:40.800Z,7.36
2023-12-10T21:46:07.864Z,7.29
2023-12-10T21:48:35.025Z,7.30
2023-12-10T21:51:02.407Z,7.22
2023-12-10T21:53:28.947Z,7.20
2023-12-10T21:55:55.826Z,7.41
2023-12-10T21:58:22.617Z,7.43
2023-12-10T22:00:49.701Z,7.31
2023-12-10T22:03:16.583Z,7.32
2023-12-10T22:05:43.877Z,7.30
2023-12-10T22:08:10.504Z,7.16
2023-12-10T22:10:37.481Z,7.25
2023-12-10T22:13:04.289Z,7.22
2023-12-10T22:15:31.347Z,7.17
2023-12-10T22:17:58.047Z,7.20
2023-12-10T22:20:25.068Z,7.15
2023-12-10T22:22:51.849Z,7.10
2023-12-10T22:25:18.812Z,7.19
2023-12-10T22:27:46.658Z,7.13
2023-12-10T22:30:14.528Z,7.35
2023-12-10T22:32:41.460Z,7.32
2023-12-10T22:35:08.990Z,7.39
2023-12-10T22:37:36.055Z,7.38
2023-12-10T22:40:03.421Z,7.38
2023-12-10T22:42:30.287Z,7.30
2023-12-10T22:45:00.274Z,7.28
2023-12-10T22:47:27.017Z,7.35
2023-12-10T22:49:55.663Z,7.35
2023-12-10T22:52:22.471Z,7.43
2023-12-10T22:54:49.228Z,7.40
2023-12-10T22:57:16.244Z,7.41
2023-12-10T22:59:44.206Z,7.38
2023-12-10T23:02:11.900Z,7.39
2023-12-10T23:04:38.849Z,7.32
2023-12-10T23:07:05.412Z,7.32
2023-12-10T23:09:32.181Z,7.26
2023-12-10T23:11:58.598Z,7.26
2023-12-10T23:14:25.378Z,7.26
2023-12-10T23:16:51.797Z,7.20
2023-12-10T23:19:18.578Z,7.28
2023-12-10T23:21:45.116Z,7.22
2023-12-10T23:24:12.170Z,7.25
2023-12-10T23:26:38.590Z,7.17
2023-12-10T23:29:06.356Z,7.18
2023-12-10T23:31:32.842Z,7.14
2023-12-10T23:34:00.408Z,7.27
2023-12-10T23:36:26.873Z,7.38
2023-12-10T23:38:53.567Z,7.34
2023-12-10T23:41:20.966Z,7.30
2023-12-10T23:43:48.848Z,7.30
2023-12-10T23:46:15.414Z,7.27
2023-12-10T23:48:43.109Z,7.21
2023-12-10T23:51:27.919Z,7.22
2023-12-10T23:53:55.054Z,7.37
2023-12-10T23:56:21.482Z,7.25
2023-12-10T23:58:48.269Z,7.29
